sensor_id;sensor_type;location;lat;lon;timestamp;P1;durP1;ratioP1;P2;durP2;ratioP2
44816;SDS011;30529;53.570;9.964;2023-08-01T00:00:01;2.70;;;2.30;;
44816;SDS011;30529;53.570;9.964;2023-08-01T00:02:29;3.30;;;2.77;;
44816;SDS011;30529;53.570;9.964;2023-08-01T00:04:55;3.40;;;2.50;;
44816;SDS011;30529;53.570;9.964;2023-08-01T00:07:21;2.10;;;1.50;;
44816;SDS011;30529;53.570;9.964;2023-08-01T00:09:47;5.60;;;2.40;;
44816;SDS011;30529;53.570;9.964;2023-08-01T00:12:14;4.40;;;1.70;;
44816;SDS011;30529;53.570;9.964;2023-08-01T00:14:40;2.67;;;2.10;;
44816;SDS011;30529;53.570;9.964;2023-08-01T00:17:06;1.73;;;1.57;;
44816;SDS011;30529;53.570;9.964;2023-08-01T00:19:32;1.73;;;1.50;;
44816;SDS011;30529;53.570;9.964;2023-08-01T00:21:58;2.43;;;1.80;;
44816;SDS011;30529;53.570;9.964;2023-08-01T00:24:24;2.57;;;1.77;;
44816;SDS011;30529;53.570;9.964;2023-08-01T00:26:50;2.47;;;1.83;;
44816;SDS011;30529;53.570;9.964;2023-08-01T00:29:16;1.90;;;1.70;;
44816;SDS011;30529;53.570;9.964;2023-08-01T00:31:42;3.10;;;1.80;;
44816;SDS011;30529;53.570;9.964;2023-08-01T00:34:08;1.90;;;1.67;;
44816;SDS011;30529;53.570;9.964;2023-08-01T00:36:34;3.27;;;1.87;;
44816;SDS011;30529;53.570;9.964;2023-08-01T00:39:00;2.50;;;1.90;;
44816;SDS011;30529;53.570;9.964;2023-08-01T00:41:26;3.13;;;1.40;;
44816;SDS011;30529;53.570;9.964;2023-08-01T00:43:52;2.10;;;1.77;;
44816;SDS011;30529;53.570;9.964;2023-08-01T00:46:18;1.47;;;1.30;;
44816;SDS011;30529;53.570;9.964;2023-08-01T00:48:44;2.30;;;1.87;;
44816;SDS011;30529;53.570;9.964;2023-08-01T00:51:12;1.93;;;1.57;;
44816;SDS011;30529;53.570;9.964;2023-08-01T00:53:39;1.80;;;1.60;;
44816;SDS011;30529;53.570;9.964;2023-08-01T00:56:05;2.77;;;1.60;;
44816;SDS011;30529;53.570;9.964;2023-08-01T00:58:31;3.70;;;1.80;;
44816;SDS011;30529;53.570;9.964;2023-08-01T01:00:57;2.93;;;1.97;;
44816;SDS011;30529;53.570;9.964;2023-08-01T01:09:01;3.30;;;1.80;;
44816;SDS011;30529;53.570;9.964;2023-08-01T01:11:30;3.37;;;2.10;;
44816;SDS011;30529;53.570;9.964;2023-08-01T01:13:56;3.37;;;2.23;;
44816;SDS011;30529;53.570;9.964;2023-08-01T01:16:22;5.07;;;2.87;;
44816;SDS011;30529;53.570;9.964;2023-08-01T01:18:48;2.97;;;2.00;;
44816;SDS011;30529;53.570;9.964;2023-08-01T01:21:14;2.47;;;2.10;;
44816;SDS011;30529;53.570;9.964;2023-08-01T01:23:40;2.83;;;2.37;;
44816;SDS011;30529;53.570;9.964;2023-08-01T01:26:07;2.97;;;2.67;;
44816;SDS011;30529;53.570;9.964;2023-08-01T01:28:34;2.70;;;2.47;;
44816;SDS011;30529;53.570;9.964;2023-08-01T01:31:02;3.37;;;2.50;;
44816;SDS011;30529;53.570;9.964;2023-08-01T01:33:28;3.00;;;2.70;;
44816;SDS011;30529;53.570;9.964;2023-08-01T01:35:54;3.60;;;2.80;;
44816;SDS011;30529;53.570;9.964;2023-08-01T01:38:20;4.10;;;2.50;;
44816;SDS011;30529;53.570;9.964;2023-08-01T01:40:46;4.20;;;3.10;;
44816;SDS011;30529;53.570;9.964;2023-08-01T01:43:12;3.40;;;2.90;;
44816;SDS011;30529;53.570;9.964;2023-08-01T01:45:38;6.70;;;3.17;;
44816;SDS011;30529;53.570;9.964;2023-08-01T01:48:04;4.07;;;3.50;;
44816;SDS011;30529;53.570;9.964;2023-08-01T01:50:30;3.83;;;3.43;;
44816;SDS011;30529;53.570;9.964;2023-08-01T01:52:56;5.03;;;3.10;;
44816;SDS011;30529;53.570;9.964;2023-08-01T01:55:22;3.97;;;3.30;;
44816;SDS011;30529;53.570;9.964;2023-08-01T01:57:48;3.90;;;3.27;;
44816;SDS011;30529;53.570;9.964;2023-08-01T02:00:14;3.63;;;3.13;;
44816;SDS011;30529;53.570;9.964;2023-08-01T02:02:40;4.00;;;3.10;;
44816;SDS011;30529;53.570;9.964;2023-08-01T02:05:07;3.67;;;3.13;;
44816;SDS011;30529;53.570;9.964;2023-08-01T02:07:33;4.37;;;3.87;;
44816;SDS011;30529;53.570;9.964;2023-08-01T02:09:59;5.40;;;4.00;;
44816;SDS011;30529;53.570;9.964;2023-08-01T02:12:27;8.77;;;4.13;;
44816;SDS011;30529;53.570;9.964;2023-08-01T02:14:53;5.70;;;4.70;;
44816;SDS011;30529;53.570;9.964;2023-08-01T02:17:19;5.73;;;4.97;;
44816;SDS011;30529;53.570;9.964;2023-08-01T02:19:45;6.17;;;4.57;;
44816;SDS011;30529;53.570;9.964;2023-08-01T02:22:11;6.17;;;5.17;;
44816;SDS011;30529;53.570;9.964;2023-08-01T02:24:37;6.73;;;4.80;;
44816;SDS011;30529;53.570;9.964;2023-08-01T02:27:03;6.47;;;5.17;;
44816;SDS011;30529;53.570;9.964;2023-08-01T02:29:29;5.53;;;4.87;;
44816;SDS011;30529;53.570;9.964;2023-08-01T02:31:55;5.43;;;4.90;;
44816;SDS011;30529;53.570;9.964;2023-08-01T02:34:21;6.77;;;5.23;;
44816;SDS011;30529;53.570;9.964;2023-08-01T02:36:47;6.87;;;5.77;;
44816;SDS011;30529;53.570;9.964;2023-08-01T02:39:13;9.13;;;5.60;;
44816;SDS011;30529;53.570;9.964;2023-08-01T02:41:39;8.50;;;5.57;;
44816;SDS011;30529;53.570;9.964;2023-08-01T02:44:05;6.73;;;5.70;;
44816;SDS011;30529;53.570;9.964;2023-08-01T02:46:31;6.77;;;5.97;;
44816;SDS011;30529;53.570;9.964;2023-08-01T02:48:57;7.57;;;5.80;;
44816;SDS011;30529;53.570;9.964;2023-08-01T02:51:23;6.90;;;5.77;;
44816;SDS011;30529;53.570;9.964;2023-08-01T02:53:49;7.67;;;6.13;;
44816;SDS011;30529;53.570;9.964;2023-08-01T02:56:15;7.13;;;5.57;;
44816;SDS011;30529;53.570;9.964;2023-08-01T02:58:40;6.43;;;5.83;;
44816;SDS011;30529;53.570;9.964;2023-08-01T03:01:07;9.93;;;7.00;;
44816;SDS011;30529;53.570;9.964;2023-08-01T03:03:38;8.87;;;5.70;;
44816;SDS011;30529;53.570;9.964;2023-08-01T03:06:05;7.60;;;6.13;;
44816;SDS011;30529;53.570;9.964;2023-08-01T03:08:30;7.40;;;5.73;;
44816;SDS011;30529;53.570;9.964;2023-08-01T03:10:57;7.93;;;6.33;;
44816;SDS011;30529;53.570;9.964;2023-08-01T03:13:23;7.57;;;6.77;;
44816;SDS011;30529;53.570;9.964;2023-08-01T03:15:49;7.73;;;6.93;;
44816;SDS011;30529;53.570;9.964;2023-08-01T03:18:15;7.50;;;6.57;;
44816;SDS011;30529;53.570;9.964;2023-08-01T03:20:41;6.93;;;6.23;;
44816;SDS011;30529;53.570;9.964;2023-08-01T03:23:07;9.80;;;6.97;;
44816;SDS011;30529;53.570;9.964;2023-08-01T03:25:33;6.97;;;6.13;;
44816;SDS011;30529;53.570;9.964;2023-08-01T03:27:59;9.33;;;6.90;;
44816;SDS011;30529;53.570;9.964;2023-08-01T03:30:25;7.53;;;6.73;;
44816;SDS011;30529;53.570;9.964;2023-08-01T03:32:51;8.17;;;6.43;;
44816;SDS011;30529;53.570;9.964;2023-08-01T03:35:17;7.90;;;5.90;;
44816;SDS011;30529;53.570;9.964;2023-08-01T03:37:43;12.30;;;6.77;;
44816;SDS011;30529;53.570;9.964;2023-08-01T03:40:10;7.50;;;6.70;;
44816;SDS011;30529;53.570;9.964;2023-08-01T03:42:38;10.23;;;7.33;;
44816;SDS011;30529;53.570;9.964;2023-08-01T03:45:06;11.33;;;6.43;;
44816;SDS011;30529;53.570;9.964;2023-08-01T03:47:32;10.20;;;6.73;;
44816;SDS011;30529;53.570;9.964;2023-08-01T03:49:58;8.83;;;6.67;;
44816;SDS011;30529;53.570;9.964;2023-08-01T03:52:24;8.20;;;5.73;;
44816;SDS011;30529;53.570;9.964;2023-08-01T03:54:53;8.60;;;6.27;;
44816;SDS011;30529;53.570;9.964;2023-08-01T03:57:19;8.43;;;6.23;;
44816;SDS011;30529;53.570;9.964;2023-08-01T03:59:45;7.80;;;5.77;;
44816;SDS011;30529;53.570;9.964;2023-08-01T04:02:12;9.13;;;6.27;;
44816;SDS011;30529;53.570;9.964;2023-08-01T04:04:38;8.37;;;6.20;;
44816;SDS011;30529;53.570;9.964;2023-08-01T04:07:04;7.97;;;6.90;;
44816;SDS011;30529;53.570;9.964;2023-08-01T04:09:30;9.80;;;6.77;;
44816;SDS011;30529;53.570;9.964;2023-08-01T04:11:56;10.63;;;6.90;;
44816;SDS011;30529;53.570;9.964;2023-08-01T04:14:22;10.07;;;6.63;;
44816;SDS011;30529;53.570;9.964;2023-08-01T04:16:48;10.37;;;6.70;;
44816;SDS011;30529;53.570;9.964;2023-08-01T04:19:14;10.80;;;6.83;;
44816;SDS011;30529;53.570;9.964;2023-08-01T04:21:40;7.90;;;6.63;;
44816;SDS011;30529;53.570;9.964;2023-08-01T04:24:06;9.30;;;6.40;;
44816;SDS011;30529;53.570;9.964;2023-08-01T04:26:31;8.47;;;6.90;;
44816;SDS011;30529;53.570;9.964;2023-08-01T04:28:57;7.50;;;5.97;;
44816;SDS011;30529;53.570;9.964;2023-08-01T04:31:24;10.37;;;6.27;;
44816;SDS011;30529;53.570;9.964;2023-08-01T04:33:50;10.80;;;7.10;;
44816;SDS011;30529;53.570;9.964;2023-08-01T04:36:16;7.87;;;6.47;;
44816;SDS011;30529;53.570;9.964;2023-08-01T04:38:42;8.00;;;6.13;;
44816;SDS011;30529;53.570;9.964;2023-08-01T04:41:08;8.87;;;7.10;;
44816;SDS011;30529;53.570;9.964;2023-08-01T04:43:34;10.87;;;7.30;;
44816;SDS011;30529;53.570;9.964;2023-08-01T04:46:00;7.40;;;6.50;;
44816;SDS011;30529;53.570;9.964;2023-08-01T04:48:25;8.10;;;6.47;;
44816;SDS011;30529;53.570;9.964;2023-08-01T04:50:51;8.43;;;7.47;;
44816;SDS011;30529;53.570;9.964;2023-08-01T04:53:17;9.37;;;6.90;;
44816;SDS011;30529;53.570;9.964;2023-08-01T04:55:43;7.97;;;6.80;;
44816;SDS011;30529;53.570;9.964;2023-08-01T04:58:09;10.37;;;7.40;;
44816;SDS011;30529;53.570;9.964;2023-08-01T05:00:35;12.37;;;8.43;;
44816;SDS011;30529;53.570;9.964;2023-08-01T05:03:02;9.53;;;7.33;;
44816;SDS011;30529;53.570;9.964;2023-08-01T05:05:28;8.87;;;7.37;;
44816;SDS011;30529;53.570;9.964;2023-08-01T05:07:54;11.63;;;8.03;;
44816;SDS011;30529;53.570;9.964;2023-08-01T05:10:20;8.00;;;5.77;;
44816;SDS011;30529;53.570;9.964;2023-08-01T05:12:46;8.17;;;6.47;;
44816;SDS011;30529;53.570;9.964;2023-08-01T05:15:12;9.40;;;6.60;;
44816;SDS011;30529;53.570;9.964;2023-08-01T05:17:38;7.27;;;6.00;;
44816;SDS011;30529;53.570;9.964;2023-08-01T05:20:04;10.07;;;6.33;;
44816;SDS011;30529;53.570;9.964;2023-08-01T05:22:31;7.37;;;6.27;;
44816;SDS011;30529;53.570;9.964;2023-08-01T05:24:57;11.67;;;6.57;;
44816;SDS011;30529;53.570;9.964;2023-08-01T05:27:22;7.97;;;6.57;;
44816;SDS011;30529;53.570;9.964;2023-08-01T05:29:48;8.90;;;6.47;;
44816;SDS011;30529;53.570;9.964;2023-08-01T05:32:14;11.00;;;6.27;;
44816;SDS011;30529;53.570;9.964;2023-08-01T05:34:40;10.57;;;6.67;;
44816;SDS011;30529;53.570;9.964;2023-08-01T05:37:06;9.47;;;6.40;;
44816;SDS011;30529;53.570;9.964;2023-08-01T05:39:32;11.37;;;6.33;;
44816;SDS011;30529;53.570;9.964;2023-08-01T05:41:58;8.17;;;5.63;;
44816;SDS011;30529;53.570;9.964;2023-08-01T05:44:24;9.10;;;5.97;;
44816;SDS011;30529;53.570;9.964;2023-08-01T05:46:50;6.37;;;5.53;;
44816;SDS011;30529;53.570;9.964;2023-08-01T05:49:16;8.47;;;5.53;;
44816;SDS011;30529;53.570;9.964;2023-08-01T05:51:42;6.33;;;4.67;;
44816;SDS011;30529;53.570;9.964;2023-08-01T05:54:08;12.43;;;5.90;;
44816;SDS011;30529;53.570;9.964;2023-08-01T05:56:34;9.40;;;5.17;;
44816;SDS011;30529;53.570;9.964;2023-08-01T05:59:00;9.93;;;5.30;;
44816;SDS011;30529;53.570;9.964;2023-08-01T06:01:26;7.13;;;5.37;;
44816;SDS011;30529;53.570;9.964;2023-08-01T06:03:52;8.83;;;4.97;;
44816;SDS011;30529;53.570;9.964;2023-08-01T06:06:18;8.03;;;5.00;;
44816;SDS011;30529;53.570;9.964;2023-08-01T06:08:44;10.37;;;4.97;;
44816;SDS011;30529;53.570;9.964;2023-08-01T06:11:10;6.37;;;4.87;;
44816;SDS011;30529;53.570;9.964;2023-08-01T06:13:36;10.50;;;4.10;;
44816;SDS011;30529;53.570;9.964;2023-08-01T06:16:02;10.57;;;5.50;;
44816;SDS011;30529;53.570;9.964;2023-08-01T06:18:29;6.63;;;4.60;;
44816;SDS011;30529;53.570;9.964;2023-08-01T06:20:55;7.07;;;4.40;;
44816;SDS011;30529;53.570;9.964;2023-08-01T06:23:21;6.97;;;4.10;;
44816;SDS011;30529;53.570;9.964;2023-08-01T06:25:46;9.17;;;4.47;;
44816;SDS011;30529;53.570;9.964;2023-08-01T06:28:13;5.17;;;4.17;;
44816;SDS011;30529;53.570;9.964;2023-08-01T06:30:38;7.47;;;4.47;;
44816;SDS011;30529;53.570;9.964;2023-08-01T06:33:04;6.50;;;4.17;;
44816;SDS011;30529;53.570;9.964;2023-08-01T06:35:30;6.70;;;4.10;;
44816;SDS011;30529;53.570;9.964;2023-08-01T06:37:56;6.03;;;4.23;;
44816;SDS011;30529;53.570;9.964;2023-08-01T06:40:22;6.90;;;3.63;;
44816;SDS011;30529;53.570;9.964;2023-08-01T06:42:49;5.77;;;3.80;;
44816;SDS011;30529;53.570;9.964;2023-08-01T06:45:15;6.97;;;4.07;;
44816;SDS011;30529;53.570;9.964;2023-08-01T06:47:41;7.60;;;3.70;;
44816;SDS011;30529;53.570;9.964;2023-08-01T06:50:07;8.30;;;3.60;;
44816;SDS011;30529;53.570;9.964;2023-08-01T06:52:33;8.10;;;3.40;;
44816;SDS011;30529;53.570;9.964;2023-08-01T06:54:59;7.57;;;3.97;;
44816;SDS011;30529;53.570;9.964;2023-08-01T06:57:25;7.67;;;3.57;;
44816;SDS011;30529;53.570;9.964;2023-08-01T06:59:51;5.20;;;3.13;;
44816;SDS011;30529;53.570;9.964;2023-08-01T07:02:17;4.77;;;2.60;;
44816;SDS011;30529;53.570;9.964;2023-08-01T07:04:43;3.57;;;2.90;;
44816;SDS011;30529;53.570;9.964;2023-08-01T07:07:09;4.47;;;2.47;;
44816;SDS011;30529;53.570;9.964;2023-08-01T07:09:35;8.23;;;3.10;;
44816;SDS011;30529;53.570;9.964;2023-08-01T07:12:01;4.47;;;2.97;;
44816;SDS011;30529;53.570;9.964;2023-08-01T07:14:27;7.03;;;2.77;;
44816;SDS011;30529;53.570;9.964;2023-08-01T07:16:53;6.53;;;2.53;;
44816;SDS011;30529;53.570;9.964;2023-08-01T07:19:19;4.00;;;2.40;;
44816;SDS011;30529;53.570;9.964;2023-08-01T07:21:45;7.87;;;2.70;;
44816;SDS011;30529;53.570;9.964;2023-08-01T07:24:13;5.20;;;2.50;;
44816;SDS011;30529;53.570;9.964;2023-08-01T07:26:39;5.23;;;2.27;;
44816;SDS011;30529;53.570;9.964;2023-08-01T07:29:06;4.53;;;2.40;;
44816;SDS011;30529;53.570;9.964;2023-08-01T07:31:33;4.27;;;2.50;;
44816;SDS011;30529;53.570;9.964;2023-08-01T07:34:00;7.47;;;3.03;;
44816;SDS011;30529;53.570;9.964;2023-08-01T07:36:26;5.77;;;2.70;;
44816;SDS011;30529;53.570;9.964;2023-08-01T07:38:53;7.63;;;2.43;;
44816;SDS011;30529;53.570;9.964;2023-08-01T07:41:19;4.03;;;2.20;;
44816;SDS011;30529;53.570;9.964;2023-08-01T07:43:49;4.90;;;2.13;;
44816;SDS011;30529;53.570;9.964;2023-08-01T07:46:16;3.73;;;2.13;;
44816;SDS011;30529;53.570;9.964;2023-08-01T07:48:42;5.83;;;2.30;;
44816;SDS011;30529;53.570;9.964;2023-08-01T07:51:08;5.50;;;2.73;;
44816;SDS011;30529;53.570;9.964;2023-08-01T07:53:35;4.90;;;2.40;;
44816;SDS011;30529;53.570;9.964;2023-08-01T07:56:01;6.53;;;3.00;;
44816;SDS011;30529;53.570;9.964;2023-08-01T07:58:28;7.43;;;2.53;;
44816;SDS011;30529;53.570;9.964;2023-08-01T08:00:55;4.23;;;2.53;;
44816;SDS011;30529;53.570;9.964;2023-08-01T08:03:21;7.33;;;2.80;;
44816;SDS011;30529;53.570;9.964;2023-08-01T08:05:49;5.17;;;2.60;;
44816;SDS011;30529;53.570;9.964;2023-08-01T08:08:15;7.93;;;3.03;;
44816;SDS011;30529;53.570;9.964;2023-08-01T08:10:41;6.70;;;3.60;;
44816;SDS011;30529;53.570;9.964;2023-08-01T08:13:07;6.43;;;2.77;;
44816;SDS011;30529;53.570;9.964;2023-08-01T08:15:33;5.67;;;2.80;;
44816;SDS011;30529;53.570;9.964;2023-08-01T08:18:00;4.87;;;2.63;;
44816;SDS011;30529;53.570;9.964;2023-08-01T08:20:30;5.97;;;2.83;;
44816;SDS011;30529;53.570;9.964;2023-08-01T08:22:57;7.03;;;2.97;;
44816;SDS011;30529;53.570;9.964;2023-08-01T08:25:23;6.67;;;3.10;;
44816;SDS011;30529;53.570;9.964;2023-08-01T08:27:49;7.37;;;3.37;;
44816;SDS011;30529;53.570;9.964;2023-08-01T08:30:15;4.77;;;3.07;;
44816;SDS011;30529;53.570;9.964;2023-08-01T08:32:42;6.10;;;3.07;;
44816;SDS011;30529;53.570;9.964;2023-08-01T08:35:08;8.43;;;3.07;;
44816;SDS011;30529;53.570;9.964;2023-08-01T08:37:34;8.73;;;3.30;;
44816;SDS011;30529;53.570;9.964;2023-08-01T08:40:02;5.87;;;3.00;;
44816;SDS011;30529;53.570;9.964;2023-08-01T08:42:29;9.17;;;2.80;;
44816;SDS011;30529;53.570;9.964;2023-08-01T08:44:55;6.87;;;3.17;;
44816;SDS011;30529;53.570;9.964;2023-08-01T08:47:24;6.50;;;2.90;;
44816;SDS011;30529;53.570;9.964;2023-08-01T08:49:51;6.27;;;2.97;;
44816;SDS011;30529;53.570;9.964;2023-08-01T08:52:20;8.30;;;3.63;;
44816;SDS011;30529;53.570;9.964;2023-08-01T08:54:46;6.47;;;3.20;;
44816;SDS011;30529;53.570;9.964;2023-08-01T08:57:13;5.77;;;3.30;;
44816;SDS011;30529;53.570;9.964;2023-08-01T08:59:39;7.63;;;3.47;;
44816;SDS011;30529;53.570;9.964;2023-08-01T09:02:06;5.77;;;3.13;;
44816;SDS011;30529;53.570;9.964;2023-08-01T09:04:33;7.90;;;3.40;;
44816;SDS011;30529;53.570;9.964;2023-08-01T09:07:01;4.43;;;2.77;;
44816;SDS011;30529;53.570;9.964;2023-08-01T09:09:30;6.30;;;2.93;;
44816;SDS011;30529;53.570;9.964;2023-08-01T09:11:58;8.60;;;3.00;;
44816;SDS011;30529;53.570;9.964;2023-08-01T09:14:24;5.63;;;3.30;;
44816;SDS011;30529;53.570;9.964;2023-08-01T09:16:50;6.30;;;3.10;;
44816;SDS011;30529;53.570;9.964;2023-08-01T09:19:20;8.10;;;3.27;;
44816;SDS011;30529;53.570;9.964;2023-08-01T09:21:48;5.90;;;3.00;;
44816;SDS011;30529;53.570;9.964;2023-08-01T09:24:16;7.23;;;3.33;;
44816;SDS011;30529;53.570;9.964;2023-08-01T09:26:44;5.00;;;2.63;;
44816;SDS011;30529;53.570;9.964;2023-08-01T09:29:11;7.10;;;2.93;;
44816;SDS011;30529;53.570;9.964;2023-08-01T09:31:38;5.33;;;2.70;;
44816;SDS011;30529;53.570;9.964;2023-08-01T09:34:06;5.53;;;3.03;;
44816;SDS011;30529;53.570;9.964;2023-08-01T09:36:44;3.17;;;1.97;;
44816;SDS011;30529;53.570;9.964;2023-08-01T09:39:15;3.53;;;2.13;;
44816;SDS011;30529;53.570;9.964;2023-08-01T09:41:42;5.63;;;2.23;;
44816;SDS011;30529;53.570;9.964;2023-08-01T09:44:15;6.53;;;2.53;;
44816;SDS011;30529;53.570;9.964;2023-08-01T09:46:41;5.97;;;2.00;;
44816;SDS011;30529;53.570;9.964;2023-08-01T09:49:10;4.13;;;2.80;;
44816;SDS011;30529;53.570;9.964;2023-08-01T09:51:46;3.30;;;2.33;;
44816;SDS011;30529;53.570;9.964;2023-08-01T09:54:14;5.43;;;2.90;;
44816;SDS011;30529;53.570;9.964;2023-08-01T09:56:43;4.00;;;2.63;;
44816;SDS011;30529;53.570;9.964;2023-08-01T09:59:11;3.90;;;2.60;;
44816;SDS011;30529;53.570;9.964;2023-08-01T10:01:37;6.77;;;2.20;;
44816;SDS011;30529;53.570;9.964;2023-08-01T10:04:06;3.90;;;1.90;;
44816;SDS011;30529;53.570;9.964;2023-08-01T10:06:34;4.03;;;2.57;;
44816;SDS011;30529;53.570;9.964;2023-08-01T10:09:03;4.50;;;2.00;;
44816;SDS011;30529;53.570;9.964;2023-08-01T10:11:33;3.27;;;1.80;;
44816;SDS011;30529;53.570;9.964;2023-08-01T10:13:59;4.90;;;1.70;;
44816;SDS011;30529;53.570;9.964;2023-08-01T10:16:28;4.47;;;2.00;;
44816;SDS011;30529;53.570;9.964;2023-08-01T10:18:54;3.63;;;1.70;;
44816;SDS011;30529;53.570;9.964;2023-08-01T10:21:21;3.57;;;2.10;;
44816;SDS011;30529;53.570;9.964;2023-08-01T10:23:48;4.50;;;2.10;;
44816;SDS011;30529;53.570;9.964;2023-08-01T10:26:15;3.13;;;1.67;;
44816;SDS011;30529;53.570;9.964;2023-08-01T10:28:49;3.70;;;1.93;;
44816;SDS011;30529;53.570;9.964;2023-08-01T10:31:17;4.67;;;2.40;;
44816;SDS011;30529;53.570;9.964;2023-08-01T10:33:45;2.77;;;1.83;;
44816;SDS011;30529;53.570;9.964;2023-08-01T10:36:21;3.80;;;1.87;;
44816;SDS011;30529;53.570;9.964;2023-08-01T10:38:53;5.50;;;1.73;;
44816;SDS011;30529;53.570;9.964;2023-08-01T10:41:21;3.63;;;1.40;;
44816;SDS011;30529;53.570;9.964;2023-08-01T10:46:48;2.13;;;1.40;;
44816;SDS011;30529;53.570;9.964;2023-08-01T10:49:14;4.13;;;1.77;;
44816;SDS011;30529;53.570;9.964;2023-08-01T10:51:41;4.53;;;1.37;;
44816;SDS011;30529;53.570;9.964;2023-08-01T10:54:21;2.70;;;1.20;;
44816;SDS011;30529;53.570;9.964;2023-08-01T10:56:48;3.53;;;1.33;;
44816;SDS011;30529;53.570;9.964;2023-08-01T10:59:17;3.93;;;1.63;;
44816;SDS011;30529;53.570;9.964;2023-08-01T11:01:50;2.80;;;0.90;;
44816;SDS011;30529;53.570;9.964;2023-08-01T11:04:18;2.13;;;1.00;;
44816;SDS011;30529;53.570;9.964;2023-08-01T11:06:46;2.47;;;0.80;;
44816;SDS011;30529;53.570;9.964;2023-08-01T11:09:17;2.37;;;0.80;;
44816;SDS011;30529;53.570;9.964;2023-08-01T11:11:48;2.30;;;1.13;;
44816;SDS011;30529;53.570;9.964;2023-08-01T11:14:19;1.90;;;0.90;;
44816;SDS011;30529;53.570;9.964;2023-08-01T11:16:46;2.47;;;0.90;;
44816;SDS011;30529;53.570;9.964;2023-08-01T11:19:19;3.17;;;1.33;;
44816;SDS011;30529;53.570;9.964;2023-08-01T11:21:50;4.23;;;1.20;;
44816;SDS011;30529;53.570;9.964;2023-08-01T11:24:17;4.93;;;1.33;;
44816;SDS011;30529;53.570;9.964;2023-08-01T11:26:45;2.87;;;1.10;;
44816;SDS011;30529;53.570;9.964;2023-08-01T11:29:13;3.63;;;1.30;;
44816;SDS011;30529;53.570;9.964;2023-08-01T11:31:40;2.40;;;1.00;;
44816;SDS011;30529;53.570;9.964;2023-08-01T11:34:18;1.90;;;1.20;;
44816;SDS011;30529;53.570;9.964;2023-08-01T11:36:44;3.07;;;1.20;;
44816;SDS011;30529;53.570;9.964;2023-08-01T11:39:11;2.53;;;1.03;;
44816;SDS011;30529;53.570;9.964;2023-08-01T11:41:39;2.10;;;1.20;;
44816;SDS011;30529;53.570;9.964;2023-08-01T11:44:06;2.97;;;1.50;;
44816;SDS011;30529;53.570;9.964;2023-08-01T11:46:33;3.33;;;1.80;;
44816;SDS011;30529;53.570;9.964;2023-08-01T11:49:00;3.43;;;1.30;;
44816;SDS011;30529;53.570;9.964;2023-08-01T11:51:27;2.13;;;1.13;;
44816;SDS011;30529;53.570;9.964;2023-08-01T11:54:00;1.53;;;0.97;;
44816;SDS011;30529;53.570;9.964;2023-08-01T11:56:27;2.93;;;1.50;;
44816;SDS011;30529;53.570;9.964;2023-08-01T11:58:53;3.63;;;1.10;;
44816;SDS011;30529;53.570;9.964;2023-08-01T12:01:19;2.97;;;1.03;;
44816;SDS011;30529;53.570;9.964;2023-08-01T12:03:50;1.97;;;0.97;;
44816;SDS011;30529;53.570;9.964;2023-08-01T12:06:21;4.57;;;0.97;;
44816;SDS011;30529;53.570;9.964;2023-08-01T12:08:51;1.80;;;0.90;;
44816;SDS011;30529;53.570;9.964;2023-08-01T12:11:21;3.30;;;1.20;;
44816;SDS011;30529;53.570;9.964;2023-08-01T12:13:48;3.13;;;0.90;;
44816;SDS011;30529;53.570;9.964;2023-08-01T12:16:35;2.83;;;0.80;;
44816;SDS011;30529;53.570;9.964;2023-08-01T12:19:07;2.70;;;1.10;;
44816;SDS011;30529;53.570;9.964;2023-08-01T12:21:34;2.03;;;0.83;;
44816;SDS011;30529;53.570;9.964;2023-08-01T12:24:00;2.80;;;1.20;;
44816;SDS011;30529;53.570;9.964;2023-08-01T12:26:27;1.80;;;0.97;;
44816;SDS011;30529;53.570;9.964;2023-08-01T12:28:53;1.03;;;0.90;;
44816;SDS011;30529;53.570;9.964;2023-08-01T12:31:19;3.47;;;1.10;;
44816;SDS011;30529;53.570;9.964;2023-08-01T12:33:47;2.33;;;1.00;;
44816;SDS011;30529;53.570;9.964;2023-08-01T12:36:13;5.07;;;1.40;;
44816;SDS011;30529;53.570;9.964;2023-08-01T12:38:39;7.10;;;1.30;;
44816;SDS011;30529;53.570;9.964;2023-08-01T12:41:06;2.43;;;1.10;;
44816;SDS011;30529;53.570;9.964;2023-08-01T12:43:32;2.10;;;1.00;;
44816;SDS011;30529;53.570;9.964;2023-08-01T12:45:58;2.80;;;0.90;;
44816;SDS011;30529;53.570;9.964;2023-08-01T12:48:25;2.77;;;1.10;;
44816;SDS011;30529;53.570;9.964;2023-08-01T12:50:51;2.50;;;1.30;;
44816;SDS011;30529;53.570;9.964;2023-08-01T12:53:18;1.60;;;1.10;;
44816;SDS011;30529;53.570;9.964;2023-08-01T12:55:45;1.57;;;0.90;;
44816;SDS011;30529;53.570;9.964;2023-08-01T12:58:12;2.47;;;0.90;;
44816;SDS011;30529;53.570;9.964;2023-08-01T13:00:39;4.17;;;1.50;;
44816;SDS011;30529;53.570;9.964;2023-08-01T13:03:06;3.37;;;1.00;;
44816;SDS011;30529;53.570;9.964;2023-08-01T13:05:36;1.93;;;0.60;;
44816;SDS011;30529;53.570;9.964;2023-08-01T13:08:04;2.30;;;0.90;;
44816;SDS011;30529;53.570;9.964;2023-08-01T13:10:35;4.60;;;1.10;;
44816;SDS011;30529;53.570;9.964;2023-08-01T13:13:02;2.33;;;1.00;;
44816;SDS011;30529;53.570;9.964;2023-08-01T13:15:28;2.73;;;0.87;;
44816;SDS011;30529;53.570;9.964;2023-08-01T13:17:55;2.97;;;0.87;;
44816;SDS011;30529;53.570;9.964;2023-08-01T13:20:21;3.60;;;0.93;;
44816;SDS011;30529;53.570;9.964;2023-08-01T13:22:50;3.20;;;1.30;;
44816;SDS011;30529;53.570;9.964;2023-08-01T13:25:17;3.60;;;1.73;;
44816;SDS011;30529;53.570;9.964;2023-08-01T13:27:43;4.33;;;1.50;;
44816;SDS011;30529;53.570;9.964;2023-08-01T13:30:09;3.73;;;1.30;;
44816;SDS011;30529;53.570;9.964;2023-08-01T13:32:40;1.50;;;1.10;;
44816;SDS011;30529;53.570;9.964;2023-08-01T13:35:06;1.70;;;0.90;;
44816;SDS011;30529;53.570;9.964;2023-08-01T13:37:32;2.70;;;1.30;;
44816;SDS011;30529;53.570;9.964;2023-08-01T13:39:58;2.87;;;1.10;;
44816;SDS011;30529;53.570;9.964;2023-08-01T13:42:26;2.63;;;1.20;;
44816;SDS011;30529;53.570;9.964;2023-08-01T13:44:53;2.50;;;1.27;;
44816;SDS011;30529;53.570;9.964;2023-08-01T13:47:20;2.23;;;0.97;;
44816;SDS011;30529;53.570;9.964;2023-08-01T13:49:46;2.60;;;1.40;;
44816;SDS011;30529;53.570;9.964;2023-08-01T13:52:12;2.17;;;1.47;;
44816;SDS011;30529;53.570;9.964;2023-08-01T13:54:38;2.53;;;1.50;;
44816;SDS011;30529;53.570;9.964;2023-08-01T13:57:05;3.57;;;1.40;;
44816;SDS011;30529;53.570;9.964;2023-08-01T13:59:31;2.57;;;1.07;;
44816;SDS011;30529;53.570;9.964;2023-08-01T14:01:57;2.77;;;1.20;;
44816;SDS011;30529;53.570;9.964;2023-08-01T14:04:23;2.07;;;1.30;;
44816;SDS011;30529;53.570;9.964;2023-08-01T14:06:49;3.37;;;1.20;;
44816;SDS011;30529;53.570;9.964;2023-08-01T14:09:15;2.67;;;1.20;;
44816;SDS011;30529;53.570;9.964;2023-08-01T14:11:41;2.03;;;0.80;;
44816;SDS011;30529;53.570;9.964;2023-08-01T14:14:07;3.00;;;0.80;;
44816;SDS011;30529;53.570;9.964;2023-08-01T14:16:33;1.33;;;0.67;;
44816;SDS011;30529;53.570;9.964;2023-08-01T14:18:59;3.17;;;1.10;;
44816;SDS011;30529;53.570;9.964;2023-08-01T14:21:25;1.23;;;0.63;;
44816;SDS011;30529;53.570;9.964;2023-08-01T14:23:51;1.63;;;0.70;;
44816;SDS011;30529;53.570;9.964;2023-08-01T14:26:17;5.23;;;0.83;;
44816;SDS011;30529;53.570;9.964;2023-08-01T14:28:43;2.63;;;0.70;;
44816;SDS011;30529;53.570;9.964;2023-08-01T14:31:09;1.70;;;0.80;;
44816;SDS011;30529;53.570;9.964;2023-08-01T14:33:35;1.93;;;1.20;;
44816;SDS011;30529;53.570;9.964;2023-08-01T14:36:01;1.80;;;0.90;;
44816;SDS011;30529;53.570;9.964;2023-08-01T14:38:32;1.63;;;0.60;;
44816;SDS011;30529;53.570;9.964;2023-08-01T14:40:58;2.17;;;0.80;;
44816;SDS011;30529;53.570;9.964;2023-08-01T14:43:26;2.03;;;0.83;;
44816;SDS011;30529;53.570;9.964;2023-08-01T14:45:52;0.70;;;0.60;;
44816;SDS011;30529;53.570;9.964;2023-08-01T14:48:18;2.97;;;1.10;;
44816;SDS011;30529;53.570;9.964;2023-08-01T14:50:46;1.23;;;0.80;;
44816;SDS011;30529;53.570;9.964;2023-08-01T14:53:12;2.20;;;0.97;;